Time;durP1;ratioP1;P1;durP2;ratioP2;P2;SDS_P1;SDS_P2;PMS_P1;PMS_P2;Temp;Humidity;BMP_temperature;BMP_pressure;BME280_temperature;BME280_humidity;BME280_pressure;Samples;Min_cycle;Max_cycle;Signal;HPM_P1;HPM_P2
2023/08/27 00:00:18;;;;;;;0.30;0.30;;;28.90;60.10;;;29.51;44.76;94620.56;4992892;28;20220;-33
2023/08/27 00:02:45;;;;;;;0.20;0.20;;;28.90;60.10;;;29.50;44.71;94610.84;5008457;28;20204;-30
2023/08/27 00:05:13;;;;;;;0.20;0.20;;;28.90;60.10;;;29.49;44.59;94615.47;4993382;28;20207;-31
2023/08/27 00:07:40;;;;;;;0.20;0.20;;;28.90;60.10;;;29.48;44.24;94607.66;5076089;28;20200;-32
2023/08/27 00:10:08;;;;;;;0.30;0.30;;;28.80;60.10;;;29.48;44.22;94607.66;4992571;28;20302;-31
2023/08/27 00:12:36;;;;;;;0.20;0.20;;;28.80;60.20;;;29.45;44.62;94603.69;4993083;28;20204;-32
2023/08/27 00:15:04;;;;;;;0.30;0.30;;;28.80;60.10;;;29.45;44.36;94592.91;4992730;28;20276;-31
2023/08/27 00:17:31;;;;;;;0.20;0.20;;;28.80;60.20;;;29.44;44.77;94582.41;4991737;28;20307;-32
2023/08/27 00:19:58;;;;;;;0.30;0.30;;;28.80;60.20;;;29.42;44.31;94571.13;4992597;28;20215;-31
2023/08/27 00:22:26;;;;;;;0.20;0.20;;;28.80;60.20;;;29.41;44.97;94578.44;4992923;28;20586;-31
2023/08/27 00:24:53;;;;;;;0.20;0.20;;;28.80;60.10;;;29.38;44.97;94579.06;5076176;28;20200;-31
2023/08/27 00:27:20;;;;;;;0.20;0.20;;;28.80;60.20;;;29.34;44.72;94565.41;4993143;28;20192;-32
2023/08/27 00:29:48;;;;;;;0.28;0.28;;;28.80;60.20;;;29.33;44.55;94561.16;4991406;28;20216;-32
2023/08/27 00:32:15;;;;;;;0.30;0.30;;;28.80;60.20;;;29.33;44.58;94554.94;5007916;28;20224;-30
2023/08/27 00:34:53;;;;;;;0.30;0.30;;;28.70;60.30;;;29.33;45.13;94552.22;4992746;28;20328;-31
2023/08/27 00:37:21;;;;;;;0.30;0.30;;;28.70;60.30;;;29.33;45.09;94557.63;5007875;28;20199;-30
2023/08/27 00:39:49;;;;;;;0.25;0.25;;;28.70;60.40;;;29.33;44.64;94560.34;4992348;28;20216;-31
2023/08/27 00:42:16;;;;;;;0.20;0.20;;;28.70;60.40;;;29.30;45.19;94550.97;5007787;28;20635;-31
2023/08/27 00:44:43;;;;;;;0.35;0.35;;;28.70;60.30;;;29.24;45.05;94547.59;4992382;28;20256;-33
2023/08/27 00:47:12;;;;;;;0.20;0.20;;;28.70;60.30;;;29.22;44.94;94539.03;5007642;28;20265;-34
2023/08/27 00:49:39;;;;;;;0.20;0.20;;;28.70;60.30;;;29.22;44.76;94536.34;5041992;28;20247;-30
2023/08/27 00:52:08;;;;;;;0.20;0.20;;;28.60;60.30;;;29.23;45.33;94534.44;5007616;28;20205;-32
2023/08/27 00:54:40;;;;;;;0.30;0.30;;;28.60;60.40;;;29.23;45.41;94527.13;4991365;28;20204;-30
2023/08/27 00:57:09;;;;;;;0.28;0.28;;;28.60;60.90;;;29.23;44.71;94529.84;5057252;28;20215;-32
2023/08/27 00:59:36;;;;;;;0.20;0.20;;;28.60;60.50;;;29.25;45.22;94524.09;4975079;28;20292;-30
2023/08/27 01:02:04;;;;;;;0.20;0.20;;;28.60;60.50;;;29.24;45.24;94514.41;5075874;28;20385;-30
2023/08/27 01:04:31;;;;;;;0.30;0.30;;;28.60;60.50;;;29.24;45.12;94514.41;4992448;28;20275;-31
2023/08/27 01:07:11;;;;;;;0.30;0.30;;;28.60;60.50;;;29.23;45.26;94502.00;4992366;28;20212;-33
2023/08/27 01:09:51;;;;;;;0.20;0.20;;;28.60;60.50;;;29.23;45.14;94504.72;5053594;28;20394;-31
2023/08/27 01:12:40;;;;;;;0.20;0.20;;;28.60;60.50;;;29.21;45.31;94521.25;4991421;28;20200;-31
2023/08/27 01:15:08;;;;;;;0.20;0.20;;;28.60;60.50;;;29.21;44.99;94521.25;4991248;28;20253;-30
2023/08/27 01:17:36;;;;;;;0.20;0.20;;;28.60;60.50;;;29.23;45.39;94523.63;5075813;28;20245;-30
2023/08/27 01:20:05;;;;;;;0.30;0.30;;;28.60;60.50;;;29.23;45.25;94521.72;5075870;28;20247;-32
2023/08/27 01:22:32;;;;;;;0.20;0.20;;;28.60;60.50;;;29.25;45.39;94521.41;5010000;28;20548;-31
2023/08/27 01:25:00;;;;;;;0.20;0.20;;;28.60;60.60;;;29.25;44.88;94524.09;4995211;28;20201;-31
2023/08/27 01:27:37;;;;;;;0.30;0.30;;;28.60;60.60;;;29.27;45.63;94529.97;5010597;28;20628;-33
2023/08/27 01:30:21;;;;;;;0.20;0.20;;;28.60;60.70;;;29.26;45.61;94541.91;5058089;28;20261;-31
2023/08/27 01:33:05;;;;;;;0.20;0.20;;;28.70;60.70;;;29.24;45.04;94541.41;5079568;28;20184;-30
2023/08/27 01:35:33;;;;;;;0.28;0.28;;;28.70;60.70;;;29.22;44.99;94541.75;5069866;28;20184;-34
2023/08/27 01:38:01;;;;;;;0.20;0.20;;;28.70;60.50;;;29.19;44.86;94536.97;4995096;28;20200;-31
2023/08/27 01:40:29;;;;;;;0.30;0.30;;;28.70;60.60;;;29.17;45.36;94539.19;5061448;28;20197;-33
2023/08/27 01:42:56;;;;;;;0.25;0.25;;;28.60;60.50;;;29.16;45.36;94539.50;4995243;28;20620;-32
2023/08/27 01:45:24;;;;;;;0.20;0.20;;;28.60;60.60;;;29.16;45.56;94534.94;5010360;28;20212;-32
2023/08/27 01:47:51;;;;;;;0.30;0.30;;;28.60;60.60;;;29.15;45.25;94538.72;4995267;28;20201;-32
2023/08/27 01:50:19;;;;;;;0.30;0.30;;;28.60;60.70;;;29.16;45.49;94539.50;4993742;28;20228;-32
2023/08/27 01:52:46;;;;;;;0.20;0.20;;;28.60;60.70;;;29.12;45.46;94542.06;5078555;28;20631;-31
2023/08/27 01:55:13;;;;;;;0.25;0.25;;;28.60;60.70;;;29.11;44.94;94535.06;5010184;28;20266;-32
2023/08/27 01:57:41;;;;;;;0.28;0.28;;;28.60;60.80;;;29.11;45.08;94523.47;5062052;28;20299;-30
2023/08/27 02:00:09;;;;;;;0.20;0.20;;;28.50;60.70;;;29.10;45.14;94525.41;5061167;28;20197;-31
2023/08/27 02:02:43;;;;;;;0.20;0.20;;;28.50;60.80;;;29.07;45.20;94520.63;4995278;28;20183;-30
2023/08/27 02:05:11;;;;;;;0.20;0.20;;;28.50;60.80;;;29.05;45.10;94514.75;4993739;28;20243;-30
2023/08/27 02:07:39;;;;;;;0.30;0.30;;;28.50;60.90;;;29.03;45.22;94515.06;5061397;28;20259;-31
2023/08/27 02:10:08;;;;;;;0.20;0.20;;;28.50;60.80;;;29.00;45.20;94504.13;5061053;28;20278;-32
2023/08/27 02:12:36;;;;;;;0.20;0.20;;;28.50;60.90;;;28.99;45.87;94489.03;4994526;28;20623;-33
2023/08/27 02:15:06;;;;;;;0.20;0.20;;;28.50;60.90;;;28.98;45.77;94472.03;4994495;28;20189;-32
2023/08/27 02:17:34;;;;;;;0.30;0.30;;;28.40;60.80;;;28.98;45.36;94458.53;4994395;28;20638;-33
2023/08/27 02:20:06;;;;;;;0.22;0.22;;;28.40;60.90;;;29.00;45.74;94458.22;4993334;28;20398;-30
2023/08/27 02:22:36;;;;;;;0.30;0.30;;;28.40;61.00;;;29.01;45.46;94463.28;5009804;28;20212;-32
2023/08/27 02:25:05;;;;;;;0.20;0.20;;;28.40;61.00;;;29.03;45.47;94463.00;4994364;28;20701;-30
2023/08/27 02:27:32;;;;;;;0.20;0.20;;;28.40;61.10;;;29.06;46.01;94465.03;4993367;28;20354;-32
2023/08/27 02:29:59;;;;;;;0.35;0.35;;;28.40;61.00;;;29.07;45.82;94461.22;5009408;28;20230;-31
2023/08/27 02:32:27;;;;;;;0.20;0.20;;;28.50;61.10;;;29.07;45.77;94456.59;4993108;28;20631;-33
2023/08/27 02:34:54;;;;;;;0.30;0.30;;;28.50;61.10;;;29.08;45.42;94458.19;5009570;28;20196;-31
2023/08/27 02:37:21;;;;;;;0.20;0.20;;;28.50;61.00;;;29.05;45.69;94463.44;5077649;28;20582;-31
2023/08/27 02:39:48;;;;;;;0.20;0.20;;;28.50;60.90;;;28.96;45.46;94458.06;5077564;28;20296;-32
2023/08/27 02:42:16;;;;;;;0.20;0.20;;;28.50;60.70;;;28.85;45.51;94463.00;4993179;28;20269;-32
2023/08/27 02:44:43;;;;;;;0.30;0.30;;;28.50;60.60;;;28.77;45.84;94471.09;5077665;28;20290;-32
2023/08/27 02:47:10;;;;;;;0.20;0.20;;;28.40;60.60;;;28.74;45.93;94462.53;4993079;28;20211;-32
2023/08/27 02:49:38;;;;;;;0.30;0.30;;;28.40;60.80;;;28.75;45.95;94456.03;4993764;28;20246;-29
2023/08/27 02:52:05;;;;;;;0.30;0.30;;;28.30;60.90;;;28.75;45.44;94466.03;5077526;28;20223;-33
2023/08/27 02:54:33;;;;;;;0.20;0.20;;;28.30;60.90;;;28.74;45.97;94454.44;5060326;28;20200;-32
2023/08/27 02:57:00;;;;;;;0.20;0.20;;;28.30;61.00;;;28.74;46.22;94442.84;5077529;28;20203;-32
2023/08/27 02:59:27;;;;;;;0.20;0.20;;;28.20;61.00;;;28.75;46.10;94444.44;4993911;28;20207;-33
2023/08/27 03:01:54;;;;;;;0.20;0.20;;;28.20;61.00;;;28.73;46.06;94433.97;4992854;28;20204;-32
2023/08/27 03:04:22;;;;;;;0.20;0.20;;;28.20;61.00;;;28.72;46.05;94432.38;5009133;28;20209;-34
2023/08/27 03:06:49;;;;;;;0.30;0.30;;;28.20;61.10;;;28.75;45.66;94420.16;4993724;28;20261;-30
2023/08/27 03:09:16;;;;;;;0.30;0.30;;;28.20;61.20;;;28.77;46.28;94417.13;4993466;28;20647;-31
2023/08/27 03:11:43;;;;;;;0.20;0.20;;;28.20;61.30;;;28.79;46.27;94404.91;5077556;28;20626;-32
2023/08/27 03:14:10;;;;;;;0.30;0.30;;;28.20;61.20;;;28.83;45.91;94397.75;4992669;28;20204;-32
2023/08/27 03:16:38;;;;;;;0.20;0.20;;;28.20;61.30;;;28.84;46.33;94393.94;5076742;28;20690;-31
2023/08/27 03:19:06;;;;;;;0.30;0.30;;;28.20;61.30;;;28.86;45.73;94399.03;5009767;28;20197;-33
2023/08/27 03:21:33;;;;;;;0.40;0.40;;;28.30;61.40;;;28.89;46.11;94406.47;5008876;28;20203;-30
2023/08/27 03:24:00;;;;;;;0.30;0.30;;;28.30;61.40;;;28.91;45.81;94401.53;4993575;28;20298;-31
2023/08/27 03:26:27;;;;;;;0.30;0.30;;;28.30;61.30;;;28.92;46.29;94397.75;4993734;28;20224;-31
2023/08/27 03:28:55;;;;;;;0.30;0.30;;;28.40;61.30;;;28.95;45.80;94401.69;5008771;28;20243;-32
2023/08/27 03:31:22;;;;;;;0.22;0.22;;;28.40;61.40;;;28.96;45.69;94397.88;4993185;28;20642;-32
2023/08/27 03:33:49;;;;;;;0.30;0.30;;;28.40;61.40;;;28.98;46.39;94404.53;5008673;28;20261;-31
2023/08/27 03:36:17;;;;;;;0.30;0.30;;;28.40;61.30;;;28.99;45.99;94405.31;5008657;28;20274;-32
2023/08/27 03:38:44;;;;;;;0.22;0.22;;;28.40;61.30;;;29.00;45.79;94401.53;5008559;28;20511;-31
2023/08/27 03:41:12;;;;;;;0.22;0.22;;;28.40;61.30;;;29.01;45.83;94406.59;4993269;28;20206;-33
2023/08/27 03:43:39;;;;;;;0.28;0.28;;;28.50;61.40;;;29.02;45.99;94413.56;5075946;28;20241;-33
2023/08/27 03:46:06;;;;;;;0.20;0.20;;;28.50;61.40;;;29.03;46.41;94415.16;4993432;28;20203;-31
2023/08/27 03:48:34;;;;;;;0.30;0.30;;;28.50;61.40;;;29.03;46.05;94420.56;5008515;28;20765;-31
2023/08/27 03:51:02;;;;;;;0.20;0.20;;;28.50;61.30;;;29.04;45.92;94416.75;4991944;28;20229;-30
2023/08/27 03:53:29;;;;;;;0.20;0.20;;;28.50;61.40;;;29.05;45.70;94404.03;5008381;28;20281;-31
2023/08/27 03:55:56;;;;;;;0.30;0.30;;;28.50;61.40;;;29.05;45.98;94396.75;5008626;28;20532;-30
2023/08/27 03:58:24;;;;;;;0.20;0.20;;;28.50;62.30;;;29.05;46.40;94388.66;5059619;28;20282;-31
2023/08/27 04:00:51;;;;;;;0.20;0.20;;;28.50;61.30;;;29.08;46.43;94392.59;5076279;28;20286;-32
2023/08/27 04:03:19;;;;;;;0.30;0.30;;;28.60;61.30;;;29.07;46.32;94385.63;4992374;28;20205;-30
2023/08/27 04:05:49;;;;;;;0.32;0.32;;;28.60;61.20;;;29.07;45.58;94394.50;5008272;28;20635;-32
2023/08/27 04:08:17;;;;;;;0.20;0.20;;;28.60;61.00;;;29.03;46.16;94388.16;5008287;28;20203;-32
2023/08/27 04:10:54;;;;;;;0.30;0.30;;;28.60;60.90;;;29.00;45.31;94388.00;4991662;28;20212;-32
2023/08/27 04:13:21;;;;;;;0.30;0.30;;;28.50;61.00;;;28.98;45.54;94387.53;4991879;28;20254;-32
2023/08/27 04:16:03;;;;;;;0.20;0.20;;;28.50;61.00;;;28.97;45.52;94385.97;5007921;28;20196;-33
2023/08/27 04:18:32;;;;;;;0.30;0.30;;;28.50;61.00;;;28.97;45.82;94384.06;4991934;28;20181;-30
2023/08/27 04:21:00;;;;;;;0.30;0.30;;;28.50;61.10;;;28.96;45.44;94379.78;5007906;28;20210;-31
2023/08/27 04:23:28;;;;;;;0.30;0.30;;;28.50;61.20;;;28.97;45.67;94381.34;5008035;28;20278;-31
2023/08/27 04:25:56;;;;;;;0.30;0.30;;;28.50;61.30;;;28.98;46.01;94369.44;5007964;28;20637;-32
2023/08/27 04:28:23;;;;;;;0.20;0.20;;;28.50;61.30;;;28.97;46.07;94369.78;4992552;28;20678;-30
2023/08/27 04:30:52;;;;;;;0.20;0.20;;;28.50;61.30;;;28.97;46.17;94356.28;5057850;28;20238;-32
2023/08/27 04:33:19;;;;;;;0.40;0.40;;;28.50;61.40;;;28.98;45.79;94347.03;4992511;28;20677;-30
2023/08/27 04:35:52;;;;;;;0.40;0.40;;;28.50;61.40;;;28.98;45.74;94345.16;4992760;28;20255;-31
2023/08/27 04:38:21;;;;;;;0.20;0.20;;;28.50;61.30;;;28.99;46.31;94321.63;5007886;28;20710;-30
2023/08/27 04:40:52;;;;;;;0.30;0.30;;;28.50;61.40;;;28.99;46.05;94318.94;4991366;28;20204;-31
2023/08/27 04:43:20;;;;;;;0.20;0.20;;;28.50;61.30;;;29.00;45.99;94332.13;5059220;28;20220;-32
2023/08/27 04:45:47;;;;;;;0.30;0.30;;;28.50;61.30;;;29.01;46.55;94331.00;4992829;28;20543;-30
2023/08/27 04:48:16;;;;;;;0.30;0.30;;;28.50;61.30;;;29.01;45.81;94336.38;4991456;28;20719;-32
2023/08/27 04:50:46;;;;;;;0.30;0.30;;;28.50;61.30;;;29.02;46.49;94343.38;5007497;28;20228;-33
2023/08/27 04:53:13;;;;;;;0.25;0.25;;;28.50;61.40;;;29.03;45.97;94339.56;5007780;28;20202;-31
2023/08/27 04:55:41;;;;;;;0.30;0.30;;;28.50;61.30;;;29.03;46.21;94328.75;4992538;28;20196;-30
2023/08/27 04:58:09;;;;;;;0.20;0.20;;;28.50;61.30;;;29.04;46.49;94346.56;5011070;28;20661;-32
2023/08/27 05:00:37;;;;;;;0.20;0.20;;;28.50;61.30;;;29.03;46.48;94353.06;4995523;28;20195;-30
2023/08/27 05:03:05;;;;;;;0.20;0.20;;;28.50;61.30;;;29.02;46.09;94354.19;5079744;28;20200;-31
2023/08/27 05:05:32;;;;;;;0.30;0.30;;;28.60;61.30;;;29.04;46.54;94353.84;4995557;28;20603;-31
2023/08/27 05:08:00;;;;;;;0.20;0.20;;;28.60;61.30;;;29.03;46.50;94349.59;5010887;28;20647;-30
2023/08/27 05:10:27;;;;;;;0.20;0.20;;;28.60;61.30;;;29.05;46.18;94347.34;5062015;28;20292;-32
2023/08/27 05:12:55;;;;;;;0.30;0.30;;;28.60;61.30;;;29.05;46.29;94333.84;5079069;28;20219;-30
2023/08/27 05:15:23;;;;;;;0.20;0.20;;;28.60;61.30;;;29.06;45.94;94316.53;5010751;28;20540;-31
2023/08/27 05:17:51;;;;;;;0.20;0.20;;;28.60;61.30;;;29.07;46.11;94293.81;5010676;28;20243;-31
2023/08/27 05:20:18;;;;;;;0.25;0.25;;;28.60;61.30;;;29.05;46.51;94280.66;5010592;28;20209;-31
2023/08/27 05:22:46;;;;;;;0.22;0.22;;;28.60;61.30;;;29.06;46.38;94289.53;5010716;28;20268;-31
2023/08/27 05:25:13;;;;;;;0.30;0.30;;;28.60;61.30;;;29.06;46.63;94297.63;5062331;28;20200;-33
2023/08/27 05:27:44;;;;;;;0.20;0.20;;;28.60;61.30;;;29.06;46.72;94290.34;5010601;28;20576;-30
2023/08/27 05:30:15;;;;;;;0.20;0.20;;;28.60;61.20;;;29.07;46.12;94297.28;4994058;28;20224;-30
2023/08/27 05:32:43;;;;;;;0.30;0.30;;;28.60;61.30;;;29.06;45.80;94311.94;5010568;28;20196;-32
2023/08/27 05:35:10;;;;;;;0.28;0.28;;;28.60;61.30;;;29.06;46.37;94311.94;4994292;28;20207;-31
2023/08/27 05:37:38;;;;;;;0.20;0.20;;;28.60;61.30;;;29.06;46.54;94316.53;4995099;28;20201;-32
2023/08/27 05:40:06;;;;;;;0.30;0.30;;;28.60;61.40;;;29.07;45.98;94332.41;4995032;28;20205;-33
2023/08/27 05:42:35;;;;;;;0.28;0.28;;;28.60;61.40;;;29.06;46.54;94320.03;4994279;28;20234;-32
2023/08/27 05:45:03;;;;;;;0.25;0.25;;;28.60;61.30;;;29.07;46.65;94328.91;4995006;28;20194;-32
2023/08/27 05:47:31;;;;;;;0.30;0.30;;;28.60;61.40;;;29.07;46.20;94327.00;4994942;28;20276;-32
2023/08/27 05:49:58;;;;;;;0.30;0.30;;;28.60;61.30;;;29.06;46.43;94309.22;5010081;28;20221;-31
2023/08/27 05:52:26;;;;;;;0.30;0.30;;;28.60;61.40;;;29.07;46.14;94304.63;5010208;28;20197;-30
2023/08/27 05:54:55;;;;;;;0.30;0.30;;;28.60;61.30;;;29.07;45.89;94300.00;4993896;28;20632;-30
2023/08/27 05:57:22;;;;;;;0.30;0.30;;;28.60;61.30;;;29.07;46.34;94294.59;4995022;28;20200;-30
2023/08/27 05:59:49;;;;;;;0.30;0.30;;;28.60;61.20;;;29.07;45.87;94297.28;4995021;28;20204;-30
2023/08/27 06:02:17;;;;;;;0.30;0.30;;;28.60;61.10;;;29.08;45.87;94298.88;5009949;28;20208;-33
2023/08/27 06:04:45;;;;;;;0.25;0.25;;;28.60;62.10;;;29.07;46.59;94288.41;5010074;28;20212;-30
2023/08/27 06:07:12;;;;;;;0.30;0.30;;;28.60;61.20;;;29.07;46.29;94294.59;5009485;28;20213;-29
2023/08/27 06:09:39;;;;;;;0.30;0.30;;;28.60;61.20;;;29.08;45.99;94290.00;4993600;28;20236;-30
2023/08/27 06:12:07;;;;;;;0.30;0.30;;;28.60;61.20;;;29.08;45.75;94296.19;4993482;28;20254;-30
2023/08/27 06:14:34;;;;;;;0.30;0.30;;;28.60;61.30;;;29.08;46.10;94287.31;4994517;28;20195;-30
2023/08/27 06:17:02;;;;;;;0.28;0.28;;;28.60;61.20;;;29.08;46.00;94295.41;5009716;28;20232;-32
2023/08/27 06:19:29;;;;;;;0.30;0.30;;;28.60;61.20;;;29.08;46.18;94306.97;5009877;28;20203;-30
2023/08/27 06:22:14;;;;;;;0.30;0.30;;;28.60;61.10;;;29.08;46.00;94309.69;4994553;28;20189;-31
2023/08/27 06:24:42;;;;;;;0.30;0.30;;;28.60;61.20;;;29.08;46.30;94312.38;5062107;28;20212;-32
2023/08/27 06:27:09;;;;;;;0.30;0.30;;;28.60;61.20;;;29.09;45.94;94291.59;4993454;28;20205;-30
2023/08/27 06:29:36;;;;;;;0.20;0.20;;;28.60;61.20;;;29.09;46.47;94286.19;4993955;28;20193;-31
2023/08/27 06:32:04;;;;;;;0.30;0.30;;;28.60;61.30;;;29.07;46.57;94286.50;4993260;28;20202;-31
2023/08/27 06:34:34;;;;;;;0.30;0.30;;;28.60;61.40;;;29.10;45.94;94295.06;5060073;28;20190;-33
2023/08/27 06:37:02;;;;;;;0.20;0.20;;;28.60;61.30;;;29.08;46.47;94296.19;5009602;28;20209;-31
2023/08/27 06:39:29;;;;;;;0.30;0.30;;;28.60;61.40;;;29.09;46.56;94283.50;5009701;28;20207;-34
2023/08/27 06:41:57;;;;;;;0.30;0.30;;;28.60;61.40;;;29.10;46.09;94273.47;4977063;28;20204;-31
2023/08/27 06:44:26;;;;;;;0.25;0.25;;;28.60;61.40;;;29.07;46.54;94281.09;5076680;28;20758;-31
2023/08/27 06:46:56;;;;;;;0.20;0.20;;;28.60;61.40;;;29.10;46.12;94278.88;4993627;28;20217;-32
2023/08/27 06:49:24;;;;;;;0.28;0.28;;;28.60;61.40;;;29.10;46.19;94281.56;5060455;28;20212;-30
2023/08/27 06:51:52;;;;;;;0.20;0.20;;;28.60;61.40;;;29.10;46.35;94285.06;4993910;28;20253;-32
2023/08/27 06:54:19;;;;;;;0.30;0.30;;;28.60;61.40;;;29.10;46.38;94281.56;5077821;28;20223;-30
2023/08/27 06:56:47;;;;;;;0.28;0.28;;;28.60;61.40;;;29.10;46.37;94285.06;4993007;28;20236;-32
2023/08/27 06:59:14;;;;;;;0.25;0.25;;;28.60;61.40;;;29.11;46.57;94291.25;5009190;28;20258;-32
2023/08/27 07:01:41;;;;;;;0.30;0.30;;;28.60;61.40;;;29.11;46.32;94294.72;5009127;28;20221;-29
2023/08/27 07:04:09;;;;;;;0.40;0.40;;;28.60;61.40;;;29.12;46.74;94298.25;5077330;28;20201;-31
2023/08/27 07:06:36;;;;;;;0.20;0.20;;;28.70;61.50;;;29.13;46.35;94307.94;5009117;28;20307;-30
2023/08/27 07:09:05;;;;;;;0.20;0.20;;;28.60;61.40;;;29.12;46.05;94296.31;5077736;28;20262;-30
2023/08/27 07:11:36;;;;;;;0.20;0.20;;;28.60;61.40;;;29.12;46.05;94287.44;4993508;28;20252;-33
2023/08/27 07:14:03;;;;;;;0.20;0.20;;;28.60;61.40;;;29.11;46.66;94300.13;4977068;28;20197;-32
2023/08/27 07:16:31;;;;;;;0.20;0.20;;;28.60;61.40;;;29.13;46.01;94319.50;4992531;28;20622;-31
2023/08/27 07:18:59;;;;;;;0.20;0.20;;;28.60;61.40;;;29.12;46.55;94314.44;4992871;28;20278;-31
2023/08/27 07:21:27;;;;;;;0.30;0.30;;;28.70;61.40;;;29.13;45.98;94319.50;5059701;28;20235;-30
2023/08/27 07:23:55;;;;;;;0.30;0.30;;;28.60;61.30;;;29.13;46.15;94324.13;4993159;28;20216;-31
2023/08/27 07:26:23;;;;;;;0.30;0.30;;;28.60;61.40;;;29.12;46.71;94315.22;5060148;28;20205;-30
2023/08/27 07:28:50;;;;;;;0.20;0.20;;;28.60;61.40;;;29.15;46.00;94316.47;4992556;28;20215;-31
2023/08/27 07:31:20;;;;;;;0.20;0.20;;;28.60;61.40;;;29.15;46.26;94324.59;5076752;28;20239;-30
2023/08/27 07:33:47;;;;;;;0.20;0.20;;;28.70;61.50;;;29.14;46.16;94326.50;5008877;28;20284;-33
2023/08/27 07:36:14;;;;;;;0.20;0.20;;;28.60;61.40;;;29.14;46.28;94331.09;5008732;28;20271;-31
2023/08/27 07:38:42;;;;;;;0.30;0.30;;;28.70;61.40;;;29.15;46.27;94327.28;5008766;28;20640;-31
2023/08/27 07:41:11;;;;;;;0.30;0.30;;;28.70;61.40;;;29.14;46.13;94329.19;4992239;28;20531;-42
2023/08/27 07:43:39;;;;;;;0.22;0.22;;;28.70;61.50;;;29.15;46.61;94333.50;5059364;28;20240;-30
2023/08/27 07:46:06;;;;;;;0.30;0.30;;;28.70;61.50;;;29.16;46.04;94339.66;5059708;28;20278;-30
2023/08/27 07:48:34;;;;;;;0.30;0.30;;;28.70;61.50;;;29.17;46.06;94339.34;5008555;28;20245;-31
2023/08/27 07:51:04;;;;;;;0.30;0.30;;;28.70;61.50;;;29.17;46.55;94327.75;4992888;28;20232;-30
2023/08/27 07:53:31;;;;;;;0.30;0.30;;;28.60;61.40;;;29.18;46.07;94310.44;4993402;28;20247;-32
2023/08/27 07:55:59;;;;;;;0.20;0.20;;;28.70;61.50;;;29.17;46.32;94315.03;5008467;28;20250;-31
2023/08/27 07:58:28;;;;;;;0.25;0.25;;;28.70;61.50;;;29.17;46.24;94331.25;5008414;28;20643;-31
2023/08/27 08:00:59;;;;;;;0.20;0.20;;;28.60;61.50;;;29.18;46.29;94323.94;5075124;28;20215;-32
2023/08/27 08:03:26;;;;;;;0.35;0.35;;;28.70;61.60;;;29.17;46.20;94317.72;5008626;28;20213;-33
2023/08/27 08:05:53;;;;;;;0.30;0.30;;;28.70;61.70;;;29.19;46.70;94310.13;5076441;28;20193;-30
2023/08/27 08:08:20;;;;;;;0.30;0.30;;;28.70;61.70;;;29.20;46.16;94308.22;4992880;28;20254;-32
2023/08/27 08:10:47;;;;;;;0.20;0.20;;;28.70;61.70;;;29.20;46.83;94292.00;4992702;28;20296;-32
2023/08/27 08:13:14;;;;;;;0.20;0.20;;;28.70;61.70;;;29.20;46.57;94265.78;5008184;28;20193;-31
2023/08/27 08:15:42;;;;;;;0.30;0.30;;;28.70;61.70;;;29.21;46.45;94264.69;5076491;28;20248;-31
2023/08/27 08:18:09;;;;;;;0.30;0.30;;;28.70;61.70;;;29.21;46.28;94274.66;4992811;28;20515;-29
2023/08/27 08:20:39;;;;;;;0.28;0.28;;;28.70;61.70;;;29.22;46.47;94273.56;4993385;28;20196;-40
2023/08/27 08:23:06;;;;;;;0.30;0.30;;;28.80;61.80;;;29.22;46.72;94266.25;4992635;28;20504;-30
2023/08/27 08:25:35;;;;;;;0.30;0.30;;;28.70;61.80;;;29.23;46.29;94275.13;4993026;28;20201;-31
2023/08/27 08:28:05;;;;;;;0.20;0.20;;;28.70;61.70;;;29.23;46.85;94272.44;4992028;28;20313;-34
2023/08/27 08:30:33;;;;;;;0.20;0.20;;;28.80;61.80;;;29.24;46.94;94274.03;4993892;28;20213;-31
2023/08/27 08:33:00;;;;;;;0.30;0.30;;;28.80;61.80;;;29.24;46.37;94272.09;5079817;28;20210;-31
2023/08/27 08:35:27;;;;;;;0.28;0.28;;;28.70;61.70;;;29.26;46.86;94254.78;4996128;28;20230;-30
2023/08/27 08:37:54;;;;;;;0.30;0.30;;;28.80;61.80;;;29.24;46.28;94242.41;4996008;28;20196;-32
2023/08/27 08:40:21;;;;;;;0.20;0.20;;;28.80;61.80;;;29.27;46.49;94245.56;4996045;28;20263;-40
2023/08/27 08:42:57;;;;;;;0.25;0.25;;;28.80;61.80;;;29.27;46.62;94237.47;4995784;28;20212;-33
2023/08/27 08:45:45;;;;;;;0.20;0.20;;;28.80;61.80;;;29.27;46.90;94242.88;4995126;28;20189;-32
2023/08/27 08:48:13;;;;;;;0.30;0.30;;;28.80;61.80;;;29.28;47.04;94257.97;5081078;28;20506;-29
2023/08/27 08:50:41;;;;;;;0.30;0.30;;;28.80;61.80;;;29.30;46.26;94247.66;4993758;28;20222;-34
2023/08/27 08:53:16;;;;;;;0.20;0.20;;;28.80;61.80;;;29.29;46.46;94259.56;5087825;28;20201;-31
2023/08/27 08:55:47;;;;;;;0.20;0.20;;;28.80;61.80;;;29.30;46.41;94267.34;5081213;28;20205;-30
2023/08/27 08:58:16;;;;;;;0.20;0.20;;;28.80;61.80;;;29.30;46.28;94275.44;4996074;28;20274;-30
2023/08/27 09:00:44;;;;;;;0.30;0.30;;;28.80;61.80;;;29.32;46.73;94272.41;4995662;28;20193;-30
2023/08/27 09:03:14;;;;;;;0.30;0.30;;;28.80;61.80;;;29.32;46.82;94278.63;4996211;28;20649;-31
2023/08/27 09:05:42;;;;;;;0.30;0.30;;;28.80;61.80;;;29.32;46.84;94270.53;5006135;28;20294;-32
2023/08/27 09:08:10;;;;;;;0.28;0.28;;;28.80;61.80;;;29.33;46.38;94277.50;4999370;28;20217;-32
2023/08/27 09:10:37;;;;;;;0.30;0.30;;;28.80;61.80;;;29.33;46.99;94277.50;4994787;28;20216;-31
2023/08/27 09:13:05;;;;;;;0.35;0.35;;;28.80;61.80;;;29.34;46.33;94273.66;5079363;28;20204;-31
2023/08/27 09:15:32;;;;;;;0.38;0.38;;;28.80;61.70;;;29.32;46.53;94273.22;5015320;28;20188;-32
2023/08/27 09:17:59;;;;;;;0.30;0.30;;;28.80;61.80;;;29.33;46.65;94269.41;5014855;28;20692;-31
2023/08/27 09:20:27;;;;;;;0.30;0.30;;;28.80;61.80;;;29.34;46.22;94279.06;5014408;28;20224;-31
2023/08/27 09:22:55;;;;;;;0.20;0.20;;;28.80;61.80;;;29.35;46.76;94287.97;5015129;28;20199;-33
2023/08/27 09:25:22;;;;;;;0.30;0.30;;;28.80;61.80;;;29.35;46.29;94296.88;5014873;28;20234;-30
2023/08/27 09:27:50;;;;;;;0.40;0.40;;;28.80;61.80;;;29.35;46.77;94296.88;5014865;28;20234;-30
2023/08/27 09:30:17;;;;;;;0.30;0.30;;;28.80;61.80;;;29.35;46.34;94294.16;4997615;28;20535;-33
2023/08/27 09:32:45;;;;;;;0.30;0.30;;;28.80;61.80;;;29.35;46.77;94296.09;5014318;28;20519;-30
2023/08/27 09:35:13;;;;;;;0.30;0.30;;;28.80;61.70;;;29.36;46.23;94301.16;5015324;28;20199;-32
2023/08/27 09:37:43;;;;;;;0.30;0.30;;;28.80;61.80;;;29.36;46.26;94292.28;5015220;28;20274;-31
2023/08/27 09:40:14;;;;;;;0.20;0.20;;;28.80;61.70;;;29.35;46.34;94302.28;5014906;28;20536;-31
2023/08/27 09:42:42;;;;;;;0.20;0.20;;;28.80;61.70;;;29.35;46.35;94310.38;5014009;28;20536;-29
2023/08/27 09:45:09;;;;;;;0.30;0.30;;;28.80;61.70;;;29.33;46.12;94307.22;5014623;28;20199;-30
2023/08/27 09:47:39;;;;;;;0.22;0.22;;;28.80;61.60;;;29.32;45.91;94305.63;5013654;28;20235;-31
2023/08/27 09:50:15;;;;;;;0.30;0.30;;;28.80;61.60;;;29.32;46.53;94299.44;4995936;28;20203;-30
2023/08/27 09:52:42;;;;;;;0.30;0.30;;;28.80;61.60;;;29.30;45.95;94307.88;4995185;28;20586;-31
2023/08/27 09:55:16;;;;;;;0.20;0.20;;;28.70;61.60;;;29.29;46.59;94305.47;4995362;28;20285;-30
2023/08/27 09:57:50;;;;;;;0.30;0.30;;;28.70;61.60;;;29.28;46.60;94317.38;5010270;28;20187;-30
2023/08/27 10:00:18;;;;;;;0.28;0.28;;;28.60;61.50;;;29.25;45.86;94299.94;4994767;28;20196;-31
2023/08/27 10:02:49;;;;;;;0.20;0.20;;;28.70;61.60;;;29.24;46.42;94295.63;4995332;28;20212;-30
2023/08/27 10:05:16;;;;;;;0.30;0.30;;;28.70;61.70;;;29.22;46.45;94301.38;4995010;28;20593;-32
2023/08/27 10:07:56;;;;;;;0.30;0.30;;;28.60;61.60;;;29.21;46.22;94298.97;4994628;28;20208;-32
2023/08/27 10:10:25;;;;;;;0.30;0.30;;;28.60;61.70;;;29.19;46.49;94304.72;4995140;28;20245;-31
2023/08/27 10:12:54;;;;;;;0.20;0.20;;;28.60;61.60;;;29.19;46.64;94309.34;5061223;28;20209;-31
2023/08/27 10:15:27;;;;;;;0.30;0.30;;;28.60;61.80;;;29.19;46.11;94314.72;4994154;28;20224;-30
2023/08/27 10:17:56;;;;;;;0.30;0.30;;;28.60;61.80;;;29.17;46.66;94306.94;5002637;28;20225;-31
2023/08/27 10:20:24;;;;;;;0.30;0.30;;;28.60;61.80;;;29.17;46.69;94306.16;5009271;28;20242;-30
2023/08/27 10:22:51;;;;;;;0.30;0.30;;;28.50;61.70;;;29.17;46.43;94306.94;5014282;28;20195;-29
2023/08/27 10:25:19;;;;;;;0.30;0.30;;;28.50;61.80;;;29.15;46.31;94298.38;5029689;28;20293;-29